sensor_id;sensor_type;location;lat;lon;timestamp;pressure;altitude;pressure_sealevel;temperature;humidity
73171;BME280;61381;50.118;19.962;2023-05-09T00:02:02;99532.34;;;3.75;100.00
73171;BME280;61381;50.118;19.962;2023-05-09T00:07:03;99527.66;;;3.77;100.00
73171;BME280;61381;50.118;19.962;2023-05-09T00:12:04;99527.22;;;3.80;100.00
73171;BME280;61381;50.118;19.962;2023-05-09T00:17:07;99528.63;;;3.83;100.00
73171;BME280;61381;50.118;19.962;2023-05-09T00:22:08;99519.31;;;3.73;100.00
73171;BME280;61381;50.118;19.962;2023-05-09T00:27:09;99510.72;;;3.78;100.00
73171;BME280;61381;50.118;19.962;2023-05-09T00:32:11;99513.00;;;3.74;100.00
73171;BME280;61381;50.118;19.962;2023-05-09T00:37:12;99515.28;;;3.64;100.00
73171;BME280;61381;50.118;19.962;2023-05-09T00:42:13;99514.31;;;3.59;100.00
73171;BME280;61381;50.118;19.962;2023-05-09T00:47:16;99507.59;;;3.56;100.00
73171;BME280;61381;50.118;19.962;2023-05-09T00:52:17;99509.88;;;3.52;100.00
73171;BME280;61381;50.118;19.962;2023-05-09T00:57:18;99505.03;;;3.43;100.00
73171;BME280;61381;50.118;19.962;2023-05-09T01:02:21;99502.78;;;3.39;100.00
73171;BME280;61381;50.118;19.962;2023-05-09T01:07:27;99506.88;;;3.42;100.00
73171;BME280;61381;50.118;19.962;2023-05-09T01:12:33;99502.03;;;3.32;100.00
73171;BME280;61381;50.118;19.962;2023-05-09T01:17:39;99498.19;;;3.21;100.00
73171;BME280;61381;50.118;19.962;2023-05-09T01:22:46;99499.44;;;3.19;100.00
73171;BME280;61381;50.118;19.962;2023-05-09T01:27:56;99499.81;;;3.22;100.00
73171;BME280;61381;50.118;19.962;2023-05-09T01:33:00;99491.22;;;3.34;100.00
73171;BME280;61381;50.118;19.962;2023-05-09T01:38:10;99490.81;;;3.30;100.00
73171;BME280;61381;50.118;19.962;2023-05-09T01:43:13;99488.38;;;3.29;100.00
73171;BME280;61381;50.118;19.962;2023-05-09T01:48:17;99488.19;;;3.30;100.00
73171;BME280;61381;50.118;19.962;2023-05-09T01:53:20;99480.84;;;3.32;100.00
73171;BME280;61381;50.118;19.962;2023-05-09T01:58:22;99483.72;;;3.24;100.00
73171;BME280;61381;50.118;19.962;2023-05-09T02:03:27;99478.91;;;3.14;100.00
73171;BME280;61381;50.118;19.962;2023-05-09T02:08:28;99483.72;;;3.24;100.00
73171;BME280;61381;50.118;19.962;2023-05-09T02:13:29;99469.38;;;3.07;100.00
73171;BME280;61381;50.118;19.962;2023-05-09T02:18:32;99467.56;;;3.00;100.00
73171;BME280;61381;50.118;19.962;2023-05-09T02:23:33;99466.94;;;2.98;100.00
73171;BME280;61381;50.118;19.962;2023-05-09T02:28:35;99460.03;;;2.97;100.00
73171;BME280;61381;50.118;19.962;2023-05-09T02:33:39;99464.91;;;3.00;100.00
73171;BME280;61381;50.118;19.962;2023-05-09T02:38:42;99466.13;;;2.98;100.00
73171;BME280;61381;50.118;19.962;2023-05-09T02:43:43;99469.41;;;2.93;100.00
73171;BME280;61381;50.118;19.962;2023-05-09T02:48:46;99463.31;;;2.93;100.00
73171;BME280;61381;50.118;19.962;2023-05-09T02:53:47;99470.28;;;2.74;100.00
73171;BME280;61381;50.118;19.962;2023-05-09T02:58:48;99474.81;;;2.66;100.00
73171;BME280;61381;50.118;19.962;2023-05-09T03:03:50;99477.44;;;2.66;100.00
73171;BME280;61381;50.118;19.962;2023-05-09T03:08:51;99478.25;;;2.60;100.00
73171;BME280;61381;50.118;19.962;2023-05-09T03:13:52;99465.25;;;2.52;100.00
73171;BME280;61381;50.118;19.962;2023-05-09T03:18:55;99468.88;;;2.64;100.00
73171;BME280;61381;50.118;19.962;2023-05-09T03:23:56;99482.50;;;2.75;100.00
73171;BME280;61381;50.118;19.962;2023-05-09T03:28:57;99473.34;;;2.77;100.00
73171;BME280;61381;50.118;19.962;2023-05-09T03:33:59;99477.19;;;2.81;100.00
73171;BME280;61381;50.118;19.962;2023-05-09T03:39:00;99470.63;;;2.97;100.00
73171;BME280;61381;50.118;19.962;2023-05-09T03:44:01;99484.06;;;2.96;100.00
73171;BME280;61381;50.118;19.962;2023-05-09T03:49:04;99478.06;;;3.14;100.00
73171;BME280;61381;50.118;19.962;2023-05-09T03:54:05;99481.91;;;3.18;100.00
73171;BME280;61381;50.118;19.962;2023-05-09T03:59:06;99488.75;;;3.39;100.00
73171;BME280;61381;50.118;19.962;2023-05-09T04:04:08;99481.38;;;3.48;100.00
73171;BME280;61381;50.118;19.962;2023-05-09T04:09:09;99488.53;;;4.04;100.00
73171;BME280;61381;50.118;19.962;2023-05-09T04:14:10;99498.50;;;5.99;100.00
73171;BME280;61381;50.118;19.962;2023-05-09T04:19:12;99503.25;;;7.61;100.00
73171;BME280;61381;50.118;19.962;2023-05-09T04:24:13;99507.41;;;8.37;100.00
73171;BME280;61381;50.118;19.962;2023-05-09T04:29:15;99512.63;;;8.83;100.00
73171;BME280;61381;50.118;19.962;2023-05-09T04:34:17;99512.19;;;9.35;100.00
73171;BME280;61381;50.118;19.962;2023-05-09T04:39:18;99507.97;;;9.94;99.13
73171;BME280;61381;50.118;19.962;2023-05-09T04:44:19;99512.72;;;11.10;94.79
73171;BME280;61381;50.118;19.962;2023-05-09T04:49:22;99512.88;;;11.51;91.30
73171;BME280;61381;50.118;19.962;2023-05-09T04:54:23;99516.34;;;11.46;91.03
73171;BME280;61381;50.118;19.962;2023-05-09T04:59:24;99526.06;;;11.63;93.57
73171;BME280;61381;50.118;19.962;2023-05-09T05:04:26;99525.53;;;11.81;88.29
73171;BME280;61381;50.118;19.962;2023-05-09T05:09:27;99515.53;;;10.82;93.67
73171;BME280;61381;50.118;19.962;2023-05-09T05:14:28;99515.81;;;11.54;89.95
73171;BME280;61381;50.118;19.962;2023-05-09T05:19:30;99519.88;;;12.75;84.72
73171;BME280;61381;50.118;19.962;2023-05-09T05:24:31;99513.19;;;11.75;89.16
73171;BME280;61381;50.118;19.962;2023-05-09T05:29:32;99516.78;;;11.17;91.47
73171;BME280;61381;50.118;19.962;2023-05-09T05:34:35;99514.03;;;12.17;86.75
73171;BME280;61381;50.118;19.962;2023-05-09T05:39:36;99510.56;;;12.06;87.73
73171;BME280;61381;50.118;19.962;2023-05-09T05:44:37;99504.06;;;12.43;86.05
73171;BME280;61381;50.118;19.962;2023-05-09T05:49:39;99515.94;;;13.23;82.91
73171;BME280;61381;50.118;19.962;2023-05-09T05:54:40;99531.03;;;15.44;73.32
73171;BME280;61381;50.118;19.962;2023-05-09T05:59:41;99527.03;;;14.05;78.15
73171;BME280;61381;50.118;19.962;2023-05-09T06:04:43;99533.00;;;15.77;70.25
73171;BME280;61381;50.118;19.962;2023-05-09T06:09:44;99528.16;;;14.04;76.79
73171;BME280;61381;50.118;19.962;2023-05-09T06:14:45;99525.19;;;15.37;71.37
73171;BME280;61381;50.118;19.962;2023-05-09T06:19:48;99513.84;;;13.64;76.37
73171;BME280;61381;50.118;19.962;2023-05-09T06:24:49;99517.56;;;13.24;78.89
73171;BME280;61381;50.118;19.962;2023-05-09T06:29:50;99522.34;;;15.66;67.70
73171;BME280;61381;50.118;19.962;2023-05-09T06:34:52;99525.84;;;16.38;65.89
73171;BME280;61381;50.118;19.962;2023-05-09T06:39:53;99519.94;;;15.46;68.24
73171;BME280;61381;50.118;19.962;2023-05-09T06:44:54;99519.28;;;15.35;67.10
73171;BME280;61381;50.118;19.962;2023-05-09T06:49:57;99516.44;;;13.80;72.69
73171;BME280;61381;50.118;19.962;2023-05-09T06:54:58;99526.47;;;13.74;72.17
73171;BME280;61381;50.118;19.962;2023-05-09T06:59:59;99501.31;;;13.89;74.25
73171;BME280;61381;50.118;19.962;2023-05-09T07:05:01;99508.72;;;16.29;64.38
73171;BME280;61381;50.118;19.962;2023-05-09T07:10:02;99511.06;;;15.83;65.67
73171;BME280;61381;50.118;19.962;2023-05-09T07:15:04;99506.09;;;17.26;62.72
73171;BME280;61381;50.118;19.962;2023-05-09T07:20:07;99485.16;;;13.49;72.43
73171;BME280;61381;50.118;19.962;2023-05-09T07:25:09;99494.22;;;15.10;68.25
73171;BME280;61381;50.118;19.962;2023-05-09T07:30:10;99488.28;;;13.67;71.28
73171;BME280;61381;50.118;19.962;2023-05-09T07:35:12;99470.63;;;14.97;69.34
73171;BME280;61381;50.118;19.962;2023-05-09T07:40:14;99467.94;;;14.43;68.48
73171;BME280;61381;50.118;19.962;2023-05-09T07:45:15;99455.41;;;14.34;69.12
73171;BME280;61381;50.118;19.962;2023-05-09T07:50:17;99455.81;;;14.94;67.46
73171;BME280;61381;50.118;19.962;2023-05-09T07:55:18;99463.09;;;14.94;65.38
73171;BME280;61381;50.118;19.962;2023-05-09T08:00:19;99443.28;;;13.72;68.87
73171;BME280;61381;50.118;19.962;2023-05-09T08:05:22;99442.16;;;13.73;67.02
73171;BME280;61381;50.118;19.962;2023-05-09T08:10:23;99435.50;;;13.66;69.52
73171;BME280;61381;50.118;19.962;2023-05-09T08:15:24;99435.31;;;13.52;69.13
73171;BME280;61381;50.118;19.962;2023-05-09T08:20:26;99428.69;;;14.08;65.91
73171;BME280;61381;50.118;19.962;2023-05-09T08:25:27;99426.06;;;13.98;67.61
73171;BME280;61381;50.118;19.962;2023-05-09T08:30:28;99415.97;;;13.50;68.19
73171;BME280;61381;50.118;19.962;2023-05-09T08:35:31;99419.53;;;14.09;67.02
73171;BME280;61381;50.118;19.962;2023-05-09T08:40:34;99421.50;;;14.76;64.46
73171;BME280;61381;50.118;19.962;2023-05-09T08:45:41;99412.03;;;14.54;64.41
73171;BME280;61381;50.118;19.962;2023-05-09T08:50:47;99408.44;;;14.40;63.50
73171;BME280;61381;50.118;19.962;2023-05-09T08:55:48;99393.78;;;14.22;62.98
73171;BME280;61381;50.118;19.962;2023-05-09T09:00:49;99403.00;;;14.88;58.61
73171;BME280;61381;50.118;19.962;2023-05-09T09:05:53;99401.63;;;15.48;57.80
73171;BME280;61381;50.118;19.962;2023-05-09T09:10:55;99403.84;;;14.65;58.02
73171;BME280;61381;50.118;19.962;2023-05-09T09:15:57;99410.22;;;16.02;56.13
73171;BME280;61381;50.118;19.962;2023-05-09T09:21:05;99396.22;;;14.91;57.40
73171;BME280;61381;50.118;19.962;2023-05-09T09:26:06;99395.84;;;14.54;58.09
73171;BME280;61381;50.118;19.962;2023-05-09T09:31:21;99383.34;;;14.63;56.20
73171;BME280;61381;50.118;19.962;2023-05-09T09:36:27;99376.84;;;15.60;54.40
73171;BME280;61381;50.118;19.962;2023-05-09T09:41:31;99379.88;;;14.82;53.93
73171;BME280;61381;50.118;19.962;2023-05-09T09:46:43;99365.84;;;15.04;53.72
73171;BME280;61381;50.118;19.962;2023-05-09T09:51:48;99362.00;;;14.19;56.68
73171;BME280;61381;50.118;19.962;2023-05-09T09:56:50;99377.16;;;14.63;56.48
73171;BME280;61381;50.118;19.962;2023-05-09T10:01:53;99348.63;;;14.57;55.88
73171;BME280;61381;50.118;19.962;2023-05-09T10:06:57;99364.81;;;15.19;53.54
73171;BME280;61381;50.118;19.962;2023-05-09T10:12:01;99358.75;;;15.08;55.52
73171;BME280;61381;50.118;19.962;2023-05-09T10:17:03;99354.03;;;15.19;54.35
73171;BME280;61381;50.118;19.962;2023-05-09T10:22:08;99361.38;;;16.26;49.17
73171;BME280;61381;50.118;19.962;2023-05-09T10:27:11;99358.84;;;15.22;51.19
73171;BME280;61381;50.118;19.962;2023-05-09T10:32:16;99350.78;;;16.02;53.33
73171;BME280;61381;50.118;19.962;2023-05-09T10:37:24;99349.81;;;16.76;47.45
73171;BME280;61381;50.118;19.962;2023-05-09T10:42:25;99348.84;;;16.58;48.83
73171;BME280;61381;50.118;19.962;2023-05-09T10:47:27;99334.72;;;15.92;49.60
73171;BME280;61381;50.118;19.962;2023-05-09T10:52:32;99327.66;;;17.78;47.41
73171;BME280;61381;50.118;19.962;2023-05-09T10:57:38;99330.09;;;17.57;44.01
73171;BME280;61381;50.118;19.962;2023-05-09T11:02:39;99317.97;;;17.86;44.20
73171;BME280;61381;50.118;19.962;2023-05-09T11:07:41;99325.19;;;17.14;45.22
73171;BME280;61381;50.118;19.962;2023-05-09T11:12:53;99327.13;;;16.35;45.37
73171;BME280;61381;50.118;19.962;2023-05-09T11:18:04;99310.31;;;16.75;44.63
73171;BME280;61381;50.118;19.962;2023-05-09T11:23:07;99309.78;;;17.23;44.66
73171;BME280;61381;50.118;19.962;2023-05-09T11:28:08;99300.09;;;15.94;47.26
73171;BME280;61381;50.118;19.962;2023-05-09T11:33:20;99291.84;;;16.54;47.11
73171;BME280;61381;50.118;19.962;2023-05-09T11:38:23;99290.69;;;17.51;45.46
73171;BME280;61381;50.118;19.962;2023-05-09T11:43:24;99278.28;;;16.18;45.87
73171;BME280;61381;50.118;19.962;2023-05-09T11:48:25;99270.72;;;17.16;45.48
73171;BME280;61381;50.118;19.962;2023-05-09T11:53:28;99260.25;;;16.64;45.59
73171;BME280;61381;50.118;19.962;2023-05-09T11:58:29;99264.44;;;16.33;46.24
73171;BME280;61381;50.118;19.962;2023-05-09T12:03:30;99258.59;;;16.40;45.92
73171;BME280;61381;50.118;19.962;2023-05-09T12:08:32;99273.34;;;17.29;44.81
73171;BME280;61381;50.118;19.962;2023-05-09T12:13:33;99259.16;;;17.55;42.84
73171;BME280;61381;50.118;19.962;2023-05-09T12:18:34;99259.84;;;17.70;43.26
73171;BME280;61381;50.118;19.962;2023-05-09T12:23:36;99240.63;;;16.21;44.66
73171;BME280;61381;50.118;19.962;2023-05-09T12:28:38;99244.03;;;16.64;45.22
73171;BME280;61381;50.118;19.962;2023-05-09T12:33:39;99248.69;;;16.72;44.17
73171;BME280;61381;50.118;19.962;2023-05-09T12:38:51;99221.44;;;17.68;43.36
73171;BME280;61381;50.118;19.962;2023-05-09T12:43:52;99219.19;;;17.70;41.99
73171;BME280;61381;50.118;19.962;2023-05-09T12:48:54;99211.00;;;16.89;42.95
73171;BME280;61381;50.118;19.962;2023-05-09T12:54:01;99213.25;;;17.99;40.55
73171;BME280;61381;50.118;19.962;2023-05-09T12:59:03;99210.44;;;18.22;39.40
73171;BME280;61381;50.118;19.962;2023-05-09T13:04:05;99199.50;;;17.46;41.27
73171;BME280;61381;50.118;19.962;2023-05-09T13:09:09;99182.63;;;16.87;43.24
73171;BME280;61381;50.118;19.962;2023-05-09T13:14:10;99184.59;;;17.26;41.38
73171;BME280;61381;50.118;19.962;2023-05-09T13:19:12;99190.91;;;16.68;43.40
73171;BME280;61381;50.118;19.962;2023-05-09T13:24:14;99181.84;;;16.86;44.33
73171;BME280;61381;50.118;19.962;2023-05-09T13:29:15;99173.41;;;17.19;45.18
73171;BME280;61381;50.118;19.962;2023-05-09T13:34:16;99158.13;;;17.63;42.02
73171;BME280;61381;50.118;19.962;2023-05-09T13:39:19;99170.41;;;16.89;42.74
73171;BME280;61381;50.118;19.962;2023-05-09T13:44:20;99172.25;;;17.11;42.94
73171;BME280;61381;50.118;19.962;2023-05-09T13:49:21;99145.16;;;16.35;42.46
73171;BME280;61381;50.118;19.962;2023-05-09T13:54:23;99142.44;;;16.35;44.28
73171;BME280;61381;50.118;19.962;2023-05-09T13:59:24;99142.84;;;17.19;43.23
73171;BME280;61381;50.118;19.962;2023-05-09T14:04:25;99135.44;;;16.79;43.48
73171;BME280;61381;50.118;19.962;2023-05-09T14:09:28;99142.81;;;16.87;41.32
73171;BME280;61381;50.118;19.962;2023-05-09T14:14:29;99129.72;;;16.81;40.59
73171;BME280;61381;50.118;19.962;2023-05-09T14:19:30;99123.78;;;17.33;41.33
73171;BME280;61381;50.118;19.962;2023-05-09T14:24:32;99128.56;;;16.96;41.67
73171;BME280;61381;50.118;19.962;2023-05-09T14:29:33;99117.38;;;17.86;44.16
73171;BME280;61381;50.118;19.962;2023-05-09T14:34:34;99126.69;;;17.05;41.81
73171;BME280;61381;50.118;19.962;2023-05-09T14:39:36;99127.75;;;16.27;43.35
73171;BME280;61381;50.118;19.962;2023-05-09T14:44:38;99104.09;;;16.10;45.02
73171;BME280;61381;50.118;19.962;2023-05-09T14:49:38;99120.88;;;16.44;44.20
73171;BME280;61381;50.118;19.962;2023-05-09T14:54:41;99105.34;;;16.27;43.83
73171;BME280;61381;50.118;19.962;2023-05-09T14:59:42;99108.59;;;16.37;44.07
73171;BME280;61381;50.118;19.962;2023-05-09T15:04:43;99103.69;;;16.93;42.69
73171;BME280;61381;50.118;19.962;2023-05-09T15:09:46;99115.34;;;17.34;42.27
73171;BME280;61381;50.118;19.962;2023-05-09T15:14:47;99098.19;;;17.65;43.93
73171;BME280;61381;50.118;19.962;2023-05-09T15:19:48;99090.47;;;17.41;41.23
73171;BME280;61381;50.118;19.962;2023-05-09T15:24:50;99074.66;;;16.85;41.49
73171;BME280;61381;50.118;19.962;2023-05-09T15:29:51;99076.66;;;17.02;43.44
73171;BME280;61381;50.118;19.962;2023-05-09T15:34:52;99070.56;;;16.88;41.77
73171;BME280;61381;50.118;19.962;2023-05-09T15:39:55;99070.38;;;17.33;40.51
73171;BME280;61381;50.118;19.962;2023-05-09T15:44:56;99073.47;;;17.49;41.09
73171;BME280;61381;50.118;19.962;2023-05-09T15:49:57;99064.94;;;17.16;38.44
73171;BME280;61381;50.118;19.962;2023-05-09T15:54:59;99057.47;;;17.30;38.94
73171;BME280;61381;50.118;19.962;2023-05-09T16:00:00;99052.13;;;17.56;37.06
73171;BME280;61381;50.118;19.962;2023-05-09T16:05:02;99039.97;;;17.36;38.18
73171;BME280;61381;50.118;19.962;2023-05-09T16:10:05;99040.03;;;17.54;39.74
73171;BME280;61381;50.118;19.962;2023-05-09T16:15:07;99028.88;;;17.81;39.41
73171;BME280;61381;50.118;19.962;2023-05-09T16:20:09;99031.09;;;17.71;39.17
73171;BME280;61381;50.118;19.962;2023-05-09T16:25:11;99017.38;;;17.67;41.94
73171;BME280;61381;50.118;19.962;2023-05-09T16:30:14;99026.00;;;16.94;41.16
73171;BME280;61381;50.118;19.962;2023-05-09T16:35:15;99016.41;;;16.48;43.43
73171;BME280;61381;50.118;19.962;2023-05-09T16:40:17;99010.28;;;15.51;45.45
73171;BME280;61381;50.118;19.962;2023-05-09T16:45:18;99001.44;;;15.09;46.28
73171;BME280;61381;50.118;19.962;2023-05-09T16:50:19;98995.91;;;15.28;46.83
73171;BME280;61381;50.118;19.962;2023-05-09T16:55:22;98989.44;;;14.88;48.51
73171;BME280;61381;50.118;19.962;2023-05-09T17:00:23;98989.44;;;14.88;49.87
73171;BME280;61381;50.118;19.962;2023-05-09T17:05:24;98978.66;;;15.02;50.49
73171;BME280;61381;50.118;19.962;2023-05-09T17:10:26;98983.03;;;14.84;48.81
73171;BME280;61381;50.118;19.962;2023-05-09T17:15:27;98965.38;;;14.63;49.92
73171;BME280;61381;50.118;19.962;2023-05-09T17:20:28;98972.25;;;14.97;50.05
73171;BME280;61381;50.118;19.962;2023-05-09T17:25:31;98966.78;;;14.89;48.49
73171;BME280;61381;50.118;19.962;2023-05-09T17:30:32;98972.03;;;15.08;45.82
73171;BME280;61381;50.118;19.962;2023-05-09T17:35:33;98970.75;;;14.77;48.44
73171;BME280;61381;50.118;19.962;2023-05-09T17:40:35;98960.69;;;14.22;49.65
73171;BME280;61381;50.118;19.962;2023-05-09T17:45:36;98962.97;;;14.01;51.13
73171;BME280;61381;50.118;19.962;2023-05-09T17:50:37;98956.47;;;13.69;52.84
73171;BME280;61381;50.118;19.962;2023-05-09T17:55:40;98971.50;;;13.32;53.42
73171;BME280;61381;50.118;19.962;2023-05-09T18:00:41;98957.53;;;12.87;55.67
73171;BME280;61381;50.118;19.962;2023-05-09T18:05:42;98971.75;;;12.69;56.71
73171;BME280;61381;50.118;19.962;2023-05-09T18:10:45;98964.44;;;12.21;58.22
73171;BME280;61381;50.118;19.962;2023-05-09T18:15:46;98961.72;;;11.91;60.17
73171;BME280;61381;50.118;19.962;2023-05-09T18:20:47;98949.00;;;11.68;62.09
73171;BME280;61381;50.118;19.962;2023-05-09T18:25:49;98950.78;;;11.43;63.98
73171;BME280;61381;50.118;19.962;2023-05-09T18:30:51;98954.16;;;11.14;65.79
73171;BME280;61381;50.118;19.962;2023-05-09T18:35:53;98957.97;;;10.98;65.90
73171;BME280;61381;50.118;19.962;2023-05-09T18:40:55;98948.91;;;10.88;66.83
73171;BME280;61381;50.118;19.962;2023-05-09T18:45:56;98955.75;;;10.55;69.01
73171;BME280;61381;50.118;19.962;2023-05-09T18:50:57;98950.97;;;10.26;69.18
73171;BME280;61381;50.118;19.962;2023-05-09T18:56:00;98962.72;;;10.15;69.56
73171;BME280;61381;50.118;19.962;2023-05-09T19:01:01;98954.72;;;10.05;70.09
73171;BME280;61381;50.118;19.962;2023-05-09T19:06:02;98948.03;;;10.02;70.91
73171;BME280;61381;50.118;19.962;2023-05-09T19:11:04;98943.75;;;9.86;71.82
73171;BME280;61381;50.118;19.962;2023-05-09T19:16:06;98946.94;;;9.72;72.97
73171;BME280;61381;50.118;19.962;2023-05-09T19:21:07;98946.94;;;9.52;72.86
73171;BME280;61381;50.118;19.962;2023-05-09T19:26:10;98941.03;;;9.29;74.00
73171;BME280;61381;50.118;19.962;2023-05-09T19:31:11;98936.97;;;9.06;76.02
73171;BME280;61381;50.118;19.962;2023-05-09T19:36:13;98933.97;;;8.92;77.34
73171;BME280;61381;50.118;19.962;2023-05-09T19:41:15;98925.16;;;8.91;77.21
73171;BME280;61381;50.118;19.962;2023-05-09T19:46:16;98932.59;;;8.79;77.93
73171;BME280;61381;50.118;19.962;2023-05-09T19:51:17;98925.13;;;8.76;78.31
73171;BME280;61381;50.118;19.962;2023-05-09T19:56:20;98922.19;;;8.78;78.04
73171;BME280;61381;50.118;19.962;2023-05-09T20:01:21;98921.63;;;8.75;77.72
73171;BME280;61381;50.118;19.962;2023-05-09T20:06:22;98913.59;;;8.75;77.39
73171;BME280;61381;50.118;19.962;2023-05-09T20:11:24;98917.94;;;8.87;75.55
73171;BME280;61381;50.118;19.962;2023-05-09T20:16:25;98917.69;;;8.93;74.53
73171;BME280;61381;50.118;19.962;2023-05-09T20:21:26;98915.28;;;8.92;74.73
73171;BME280;61381;50.118;19.962;2023-05-09T20:26:28;98910.94;;;8.75;75.33
73171;BME280;61381;50.118;19.962;2023-05-09T20:31:30;98912.81;;;8.75;74.23
73171;BME280;61381;50.118;19.962;2023-05-09T20:36:31;98909.56;;;8.63;75.03
73171;BME280;61381;50.118;19.962;2023-05-09T20:41:33;98897.25;;;8.56;76.26
73171;BME280;61381;50.118;19.962;2023-05-09T20:46:35;98897.78;;;8.53;75.60
73171;BME280;61381;50.118;19.962;2023-05-09T20:51:36;98900.59;;;8.36;76.32
73171;BME280;61381;50.118;19.962;2023-05-09T20:56:38;98897.63;;;8.33;76.82
73171;BME280;61381;50.118;19.962;2023-05-09T21:01:39;98902.63;;;8.19;77.94
73171;BME280;61381;50.118;19.962;2023-05-09T21:06:40;98894.88;;;8.17;77.79
73171;BME280;61381;50.118;19.962;2023-05-09T21:11:43;98890.53;;;8.01;78.41
73171;BME280;61381;50.118;19.962;2023-05-09T21:16:44;98891.00;;;7.93;79.42
73171;BME280;61381;50.118;19.962;2023-05-09T21:21:45;98884.00;;;7.86;79.26
73171;BME280;61381;50.118;19.962;2023-05-09T21:26:47;98886.72;;;7.92;79.21
73171;BME280;61381;50.118;19.962;2023-05-09T21:31:48;98873.06;;;7.83;79.13
73171;BME280;61381;50.118;19.962;2023-05-09T21:36:49;98877.06;;;7.85;78.76
73171;BME280;61381;50.118;19.962;2023-05-09T21:41:51;98877.81;;;7.76;79.43
73171;BME280;61381;50.118;19.962;2023-05-09T21:46:52;98876.13;;;7.64;80.14
73171;BME280;61381;50.118;19.962;2023-05-09T21:51:54;98881.91;;;7.56;80.60
73171;BME280;61381;50.118;19.962;2023-05-09T21:56:56;98875.19;;;7.48;81.28
73171;BME280;61381;50.118;19.962;2023-05-09T22:01:57;98876.53;;;7.46;81.65
73171;BME280;61381;50.118;19.962;2023-05-09T22:06:58;98874.53;;;7.31;82.30
73171;BME280;61381;50.118;19.962;2023-05-09T22:12:01;98864.91;;;7.30;82.20
73171;BME280;61381;50.118;19.962;2023-05-09T22:17:02;98877.34;;;7.19;82.91
73171;BME280;61381;50.118;19.962;2023-05-09T22:22:03;98872.66;;;7.04;83.89
73171;BME280;61381;50.118;19.962;2023-05-09T22:27:05;98867.75;;;6.91;85.03
73171;BME280;61381;50.118;19.962;2023-05-09T22:32:06;98873.22;;;6.79;85.82
73171;BME280;61381;50.118;19.962;2023-05-09T22:37:07;98853.16;;;6.71;86.66
73171;BME280;61381;50.118;19.962;2023-05-09T22:42:09;98851.50;;;6.65;86.97
73171;BME280;61381;50.118;19.962;2023-05-09T22:47:10;98848.16;;;6.53;88.02
73171;BME280;61381;50.118;19.962;2023-05-09T22:52:11;98850.31;;;6.56;87.44
73171;BME280;61381;50.118;19.962;2023-05-09T22:57:14;98841.75;;;6.54;87.16
73171;BME280;61381;50.118;19.962;2023-05-09T23:02:15;98841.22;;;6.52;87.25
73171;BME280;61381;50.118;19.962;2023-05-09T23:07:16;98844.69;;;6.52;86.58
73171;BME280;61381;50.118;19.962;2023-05-09T23:12:19;98831.88;;;6.49;86.99
73171;BME280;61381;50.118;19.962;2023-05-09T23:17:20;98826.25;;;6.46;86.84
73171;BME280;61381;50.118;19.962;2023-05-09T23:22:21;98823.09;;;6.27;88.82
73171;BME280;61381;50.118;19.962;2023-05-09T23:27:23;98821.19;;;6.22;89.20
73171;BME280;61381;50.118;19.962;2023-05-09T23:32:24;98816.78;;;6.11;90.57
73171;BME280;61381;50.118;19.962;2023-05-09T23:37:25;98814.25;;;5.99;91.77
73171;BME280;61381;50.118;19.962;2023-05-09T23:42:28;98811.81;;;5.80;93.64
73171;BME280;61381;50.118;19.962;2023-05-09T23:47:29;98808.91;;;5.82;95.13
73171;BME280;61381;50.118;19.962;2023-05-09T23:52:30;98810.31;;;5.67;94.61
73171;BME280;61381;50.118;19.962;2023-05-09T23:57:32;98807.66;;;5.67;95.23
